Time;durP1;ratioP1;P1;durP2;ratioP2;P2;SDS_P1;SDS_P2;PMS_P1;PMS_P2;Temp;Humidity;BMP_temperature;BMP_pressure;BME280_temperature;BME280_humidity;BME280_pressure;Samples;Min_cycle;Max_cycle;Signal;HPM_P1;HPM_P2
2022/03/28 03:02:36;;;;;;;23.77;21.37;;;3.00;99.90;;;;;;4932772;29;20252;-76
2022/03/28 03:05:02;;;;;;;24.93;22.53;;;3.00;99.90;;;;;;4933368;29;20189;-75
2022/03/28 03:07:28;;;;;;;22.23;20.10;;;3.00;99.90;;;;;;4933444;29;20569;-75
2022/03/28 03:09:53;;;;;;;23.97;21.50;;;2.90;99.90;;;;;;4934843;29;20230;-75
2022/03/28 03:12:19;;;;;;;22.87;19.70;;;2.90;99.90;;;;;;4932856;29;20701;-75
2022/03/28 03:14:45;;;;;;;23.53;21.43;;;2.90;99.90;;;;;;4932176;29;20201;-75
2022/03/28 03:17:11;;;;;;;30.90;28.03;;;3.00;99.90;;;;;;4935158;29;20249;-74
2022/03/28 03:19:39;;;;;;;30.73;27.80;;;2.90;99.90;;;;;;4933384;29;20260;-74
2022/03/28 03:22:06;;;;;;;24.90;22.33;;;2.80;99.90;;;;;;4924363;29;20218;-74
2022/03/28 03:24:32;;;;;;;23.27;20.93;;;2.70;99.90;;;;;;4917726;29;20198;-75
2022/03/28 03:27:00;;;;;;;24.80;22.53;;;2.60;99.90;;;;;;4916634;29;20178;-75
2022/03/28 03:29:27;;;;;;;24.97;21.17;;;2.60;99.90;;;;;;4932490;29;20186;-75
2022/03/28 03:31:53;;;;;;;23.20;20.13;;;2.60;99.90;;;;;;4933766;29;20208;-75
2022/03/28 03:34:19;;;;;;;23.00;20.53;;;2.70;99.90;;;;;;4934390;29;20182;-75
2022/03/28 03:36:45;;;;;;;24.33;21.77;;;2.80;99.90;;;;;;4934462;29;20182;-75
2022/03/28 03:39:12;;;;;;;24.40;17.30;;;2.80;99.90;;;;;;4937079;29;20233;-75
2022/03/28 03:41:39;;;;;;;17.63;15.63;;;2.80;99.90;;;;;;4932674;29;20240;-74
2022/03/28 03:44:06;;;;;;;20.13;16.33;;;2.80;99.90;;;;;;4932860;29;20214;-75
2022/03/28 03:46:32;;;;;;;21.63;19.40;;;2.80;99.90;;;;;;4933089;29;20179;-75
2022/03/28 03:48:58;;;;;;;22.63;20.53;;;2.80;99.90;;;;;;4930421;29;20569;-71
2022/03/28 03:51:24;;;;;;;20.60;18.43;;;2.80;99.90;;;;;;4930287;29;20213;-69
2022/03/28 03:53:50;;;;;;;19.77;17.67;;;2.70;99.90;;;;;;4929843;29;20186;-70
2022/03/28 03:56:16;;;;;;;22.17;19.87;;;2.70;99.90;;;;;;4933910;29;20182;-70
2022/03/28 03:58:42;;;;;;;22.87;18.60;;;2.70;99.90;;;;;;4932090;29;20273;-70
2022/03/28 04:01:08;;;;;;;21.30;16.67;;;2.60;99.90;;;;;;4941341;29;20371;-70
2022/03/28 04:03:36;;;;;;;20.17;15.07;;;2.60;99.90;;;;;;4933256;28;20214;-70
2022/03/28 04:06:02;;;;;;;20.07;17.00;;;2.50;99.90;;;;;;4933863;29;20185;-70
2022/03/28 04:08:28;;;;;;;22.43;20.30;;;2.60;99.90;;;;;;4933625;29;20194;-70
2022/03/28 04:10:54;;;;;;;20.27;17.63;;;2.60;99.90;;;;;;4932827;29;20194;-69
2022/03/28 04:13:21;;;;;;;25.47;17.80;;;2.60;99.90;;;;;;4948227;29;20666;-69
2022/03/28 04:15:46;;;;;;;19.47;15.33;;;2.60;99.90;;;;;;4951966;29;20249;-69
2022/03/28 04:18:12;;;;;;;19.57;15.77;;;2.60;99.90;;;;;;4951471;29;20185;-71
2022/03/28 04:20:38;;;;;;;18.73;15.97;;;2.50;99.90;;;;;;4952920;28;20198;-69
2022/03/28 04:23:04;;;;;;;18.30;14.63;;;2.50;99.90;;;;;;4951429;29;20206;-69
2022/03/28 04:25:30;;;;;;;21.53;15.87;;;2.40;99.90;;;;;;4953906;28;20185;-69
2022/03/28 04:27:55;;;;;;;24.40;22.13;;;2.40;99.90;;;;;;4967546;28;20186;-69
2022/03/28 04:30:23;;;;;;;21.23;18.57;;;2.50;99.90;;;;;;4953549;28;20661;-69
2022/03/28 04:32:49;;;;;;;25.17;22.90;;;2.40;99.90;;;;;;4952168;28;20248;-69
2022/03/28 04:35:15;;;;;;;19.13;17.13;;;2.30;99.90;;;;;;4953096;28;20182;-69
2022/03/28 04:37:42;;;;;;;22.53;20.13;;;2.30;99.90;;;;;;4951152;29;20217;-69
2022/03/28 04:40:11;;;;;;;20.50;17.63;;;2.30;99.90;;;;;;4952858;28;20213;-69
2022/03/28 04:42:36;;;;;;;18.33;16.53;;;2.30;99.90;;;;;;4942555;28;20268;-69
2022/03/28 04:45:04;;;;;;;21.93;18.77;;;2.30;99.90;;;;;;4942985;29;20182;-70
2022/03/28 04:47:30;;;;;;;19.57;17.63;;;2.30;99.90;;;;;;4951072;28;20185;-69
2022/03/28 04:49:57;;;;;;;19.83;15.70;;;2.30;99.90;;;;;;4952444;29;20186;-69
2022/03/28 04:52:23;;;;;;;21.17;18.80;;;2.30;99.90;;;;;;4952601;28;20206;-69
2022/03/28 04:54:49;;;;;;;22.17;19.87;;;2.30;99.90;;;;;;4951500;29;20581;-69
2022/03/28 04:57:15;;;;;;;22.17;16.97;;;2.30;99.90;;;;;;4951283;29;20589;-69
2022/03/28 04:59:41;;;;;;;22.97;17.83;;;2.20;99.90;;;;;;4937779;28;20224;-69
2022/03/28 05:02:06;;;;;;;20.70;16.63;;;2.10;99.90;;;;;;4949451;29;20238;-70
2022/03/28 05:04:33;;;;;;;21.87;16.57;;;2.10;99.90;;;;;;4951044;29;20256;-70
2022/03/28 05:06:59;;;;;;;23.13;19.67;;;2.10;99.90;;;;;;4951304;29;20184;-70
2022/03/28 05:09:25;;;;;;;20.57;17.00;;;2.10;99.90;;;;;;4951338;29;20197;-72
2022/03/28 05:11:51;;;;;;;21.37;18.00;;;2.10;99.90;;;;;;4953079;28;20305;-70
2022/03/28 05:14:18;;;;;;;17.97;16.13;;;2.00;99.90;;;;;;4953270;28;20185;-70
2022/03/28 05:16:44;;;;;;;20.53;18.33;;;2.00;99.90;;;;;;4954794;29;20914;-67
2022/03/28 05:19:10;;;;;;;23.30;20.83;;;1.90;99.90;;;;;;4952134;28;20190;-67
2022/03/28 05:21:36;;;;;;;25.20;22.57;;;2.00;99.90;;;;;;4943917;28;20307;-69
2022/03/28 05:24:02;;;;;;;25.30;23.00;;;2.10;99.90;;;;;;4936648;29;20301;-69
2022/03/28 05:26:28;;;;;;;27.27;24.53;;;2.00;99.90;;;;;;4936561;29;20198;-69
2022/03/28 05:28:54;;;;;;;20.77;18.50;;;2.00;99.90;;;;;;4942616;29;20177;-69
2022/03/28 05:31:19;;;;;;;22.23;16.43;;;2.00;99.90;;;;;;4955498;29;20212;-69
2022/03/28 05:33:45;;;;;;;21.93;19.37;;;2.10;99.90;;;;;;4954633;29;20237;-69
2022/03/28 05:36:13;;;;;;;18.50;14.43;;;2.20;99.90;;;;;;4955711;29;20219;-69
2022/03/28 05:38:39;;;;;;;19.50;14.50;;;2.20;99.90;;;;;;4948765;29;20178;-69
2022/03/28 05:41:06;;;;;;;23.10;18.37;;;2.30;99.90;;;;;;4947370;28;20219;-69
2022/03/28 05:43:34;;;;;;;36.53;27.33;;;2.50;99.90;;;;;;4951826;29;20206;-70
2022/03/28 05:46:00;;;;;;;25.77;23.27;;;2.90;99.90;;;;;;4950765;29;20173;-70
2022/03/28 05:48:26;;;;;;;26.13;23.50;;;3.10;99.90;;;;;;4953675;28;20209;-68
2022/03/28 05:50:52;;;;;;;23.07;18.43;;;3.20;99.90;;;;;;4953762;29;20238;-68
2022/03/28 05:53:19;;;;;;;23.93;20.83;;;3.40;99.90;;;;;;4950742;28;20185;-68
2022/03/28 05:55:45;;;;;;;23.17;16.17;;;3.50;99.90;;;;;;4955745;29;20197;-68
2022/03/28 05:58:11;;;;;;;23.50;16.27;;;3.60;99.90;;;;;;4954647;28;20193;-68
2022/03/28 06:00:38;;;;;;;26.43;17.77;;;3.70;99.90;;;;;;4952865;28;20333;-68
2022/03/28 06:03:05;;;;;;;61.40;57.13;;;3.70;99.90;;;;;;4949132;28;20210;-67
2022/03/28 06:05:31;;;;;;;31.93;28.63;;;3.70;99.90;;;;;;4936155;29;20221;-68
2022/03/28 06:07:58;;;;;;;25.47;16.47;;;3.90;99.90;;;;;;4935768;29;20269;-68
2022/03/28 06:10:24;;;;;;;22.40;17.73;;;4.00;99.90;;;;;;4944716;29;20214;-68
2022/03/28 06:12:50;;;;;;;27.80;16.57;;;4.00;99.90;;;;;;4953747;28;20186;-68
2022/03/28 06:15:18;;;;;;;20.97;16.33;;;4.20;99.90;;;;;;4953282;29;20248;-68
2022/03/28 06:17:44;;;;;;;25.07;18.37;;;4.30;99.90;;;;;;4952529;28;20182;-68
2022/03/28 06:20:11;;;;;;;26.53;19.47;;;4.40;99.90;;;;;;4954524;28;20217;-68
2022/03/28 06:22:37;;;;;;;34.87;21.60;;;4.50;99.90;;;;;;4950190;28;20314;-70
2022/03/28 06:25:04;;;;;;;29.90;20.03;;;4.60;99.90;;;;;;4954896;28;20189;-70
2022/03/28 06:27:30;;;;;;;35.77;20.40;;;4.80;99.90;;;;;;4952707;28;20182;-70
2022/03/28 06:29:56;;;;;;;22.57;18.73;;;4.90;99.90;;;;;;4950389;28;20618;-69
2022/03/28 06:32:22;;;;;;;30.83;17.53;;;5.10;99.90;;;;;;4937442;29;20206;-70
2022/03/28 06:34:50;;;;;;;27.90;18.47;;;5.20;99.90;;;;;;4940855;28;20182;-70
2022/03/28 06:37:16;;;;;;;23.07;17.43;;;5.40;99.90;;;;;;4948753;29;20232;-70
2022/03/28 06:39:42;;;;;;;27.17;19.93;;;5.60;99.90;;;;;;4952797;29;20650;-70
2022/03/28 06:42:09;;;;;;;26.33;20.60;;;5.90;99.90;;;;;;4951425;29;20209;-70
2022/03/28 06:44:35;;;;;;;20.97;18.47;;;6.50;99.90;;;;;;4951837;29;20249;-70
2022/03/28 06:47:01;;;;;;;23.47;21.27;;;7.30;99.90;;;;;;4953179;28;20194;-70
2022/03/28 06:49:29;;;;;;;21.80;19.50;;;8.10;99.90;;;;;;4953707;29;20178;-70
2022/03/28 06:51:55;;;;;;;21.93;19.37;;;8.60;99.90;;;;;;4952186;28;20839;-70
2022/03/28 06:54:20;;;;;;;37.23;33.80;;;9.20;99.90;;;;;;4954070;28;20194;-70
2022/03/28 06:56:47;;;;;;;21.90;19.40;;;9.60;99.90;;;;;;4952769;28;20662;-69
2022/03/28 06:59:13;;;;;;;25.53;23.03;;;10.10;99.90;;;;;;4952707;29;20189;-70
2022/03/28 07:01:41;;;;;;;23.17;17.30;;;10.60;99.90;;;;;;4950441;28;20294;-70
2022/03/28 07:04:11;;;;;;;19.77;14.33;;;10.90;99.90;;;;;;4933849;29;20234;-70
2022/03/28 07:06:38;;;;;;;18.17;14.07;;;11.40;99.90;;;;;;4933715;29;20245;-70
2022/03/28 07:09:05;;;;;;;28.97;26.37;;;11.70;99.90;;;;;;4933453;29;20183;-70
2022/03/28 07:11:34;;;;;;;23.37;18.03;;;11.70;99.90;;;;;;4933315;29;20289;-70
2022/03/28 07:14:00;;;;;;;18.67;16.70;;;12.10;99.90;;;;;;4947665;29;20197;-70
2022/03/28 07:16:26;;;;;;;20.57;14.70;;;12.20;99.90;;;;;;4950562;29;20182;-70
2022/03/28 07:18:52;;;;;;;17.07;13.70;;;11.90;99.90;;;;;;4933547;29;20185;-70
2022/03/28 07:21:18;;;;;;;16.53;14.63;;;11.80;99.90;;;;;;4932732;29;20726;-70
2022/03/28 07:23:44;;;;;;;19.73;15.63;;;11.70;99.90;;;;;;4949096;29;20210;-70
2022/03/28 07:26:11;;;;;;;19.47;14.47;;;11.80;99.90;;;;;;4953310;28;20189;-68
2022/03/28 07:28:39;;;;;;;18.67;13.73;;;11.60;99.90;;;;;;4952008;28;20188;-70
2022/03/28 07:31:08;;;;;;;20.53;13.80;;;11.70;99.90;;;;;;4952203;29;20206;-71
2022/03/28 07:33:43;;;;;;;25.20;14.53;;;11.40;99.90;;;;;;4933811;29;20200;-71
2022/03/28 07:36:10;;;;;;;23.07;13.37;;;11.50;99.90;;;;;;4935495;29;20269;-69
2022/03/28 07:38:37;;;;;;;23.00;17.50;;;11.70;99.90;;;;;;4935011;29;20202;-68
2022/03/28 07:41:06;;;;;;;17.53;15.83;;;11.70;99.90;;;;;;4933921;29;20721;-69
2022/03/28 07:43:32;;;;;;;25.23;22.53;;;12.30;99.90;;;;;;4951797;29;20636;-70
2022/03/28 07:45:58;;;;;;;28.17;25.43;;;12.40;99.90;;;;;;4952230;29;20182;-69
2022/03/28 07:48:24;;;;;;;25.67;23.33;;;12.60;99.90;;;;;;4952466;29;20320;-70
2022/03/28 07:50:51;;;;;;;23.63;20.73;;;12.70;99.90;;;;;;4947531;29;20215;-72
2022/03/28 07:53:17;;;;;;;22.10;19.83;;;12.70;99.90;;;;;;4951855;28;20192;-70
2022/03/28 07:55:43;;;;;;;23.13;15.40;;;12.80;99.90;;;;;;4953140;28;20191;-70
2022/03/28 07:58:10;;;;;;;14.43;12.97;;;13.20;99.90;;;;;;4947276;29;20186;-71
2022/03/28 08:00:40;;;;;;;23.10;15.87;;;13.40;99.90;;;;;;4951668;28;20217;-70
2022/03/28 08:03:06;;;;;;;22.27;15.90;;;13.40;99.90;;;;;;4951632;28;20243;-71
2022/03/28 08:05:32;;;;;;;19.13;13.90;;;13.90;99.90;;;;;;4945493;28;20199;-70
2022/03/28 08:07:58;;;;;;;20.07;13.40;;;14.30;99.90;;;;;;4954888;28;20284;-70
2022/03/28 08:10:25;;;;;;;19.60;15.53;;;14.30;99.90;;;;;;4952192;29;20289;-70
2022/03/28 08:12:52;;;;;;;20.63;14.70;;;14.40;99.90;;;;;;4952925;28;20193;-70
2022/03/28 08:15:19;;;;;;;17.57;15.67;;;14.90;99.80;;;;;;4950215;28;20236;-71
2022/03/28 08:17:45;;;;;;;15.27;13.20;;;15.00;98.70;;;;;;4950381;29;20181;-70
2022/03/28 08:20:12;;;;;;;20.70;16.20;;;15.00;97.40;;;;;;4942377;29;20279;-69
2022/03/28 08:22:40;;;;;;;16.90;13.57;;;15.10;97.20;;;;;;4935544;28;20206;-70
2022/03/28 08:25:07;;;;;;;23.10;13.60;;;15.40;96.10;;;;;;4932170;29;20530;-70
2022/03/28 08:27:34;;;;;;;16.73;13.40;;;15.50;94.10;;;;;;4933269;29;20182;-70
2022/03/28 08:29:59;;;;;;;19.70;15.20;;;15.30;93.70;;;;;;4932401;29;20572;-70
2022/03/28 08:32:25;;;;;;;19.80;13.70;;;15.60;94.50;;;;;;4943003;29;20218;-70
2022/03/28 08:34:51;;;;;;;18.40;15.10;;;15.90;91.30;;;;;;4951389;29;20182;-70
2022/03/28 08:37:17;;;;;;;19.77;15.50;;;16.40;91.60;;;;;;4952498;28;20186;-70
2022/03/28 08:39:44;;;;;;;23.40;15.47;;;16.60;88.20;;;;;;4952831;28;20217;-71
2022/03/28 08:42:14;;;;;;;22.47;13.87;;;16.70;83.30;;;;;;4937153;28;20257;-71
2022/03/28 08:44:41;;;;;;;28.93;15.70;;;16.90;79.50;;;;;;4932903;29;20179;-71
2022/03/28 08:47:09;;;;;;;29.03;16.53;;;17.10;76.40;;;;;;4933431;29;20206;-70
2022/03/28 08:49:37;;;;;;;24.30;15.40;;;17.60;71.70;;;;;;4934990;29;20608;-70
2022/03/28 08:52:04;;;;;;;24.37;17.63;;;17.80;71.30;;;;;;4950663;29;20228;-71
2022/03/28 08:54:31;;;;;;;20.70;16.93;;;18.40;67.70;;;;;;4955627;29;20185;-69
2022/03/28 08:56:57;;;;;;;24.97;17.20;;;18.70;65.70;;;;;;4956232;28;20219;-70
2022/03/28 08:59:23;;;;;;;20.50;15.03;;;19.10;64.70;;;;;;4955846;29;20209;-69
2022/03/28 09:01:49;;;;;;;24.40;14.90;;;19.50;58.30;;;;;;4954706;29;20281;-70
2022/03/28 09:04:15;;;;;;;18.07;13.97;;;19.80;56.40;;;;;;4956603;29;20252;-70
2022/03/28 09:06:43;;;;;;;21.90;13.52;;;20.00;56.60;;;;;;4956915;28;20217;-70
2022/03/28 09:09:26;;;;;;;17.27;13.38;;;20.20;56.00;;;;;;4955966;29;20169;-69
2022/03/28 09:11:57;;;;;;;19.27;14.17;;;20.50;54.50;;;;;;4950890;29;20724;-74
2022/03/28 09:14:25;;;;;;;24.45;13.85;;;20.60;54.20;;;;;;4955113;29;20219;-70
2022/03/28 09:17:05;;;;;;;20.90;14.40;;;20.60;52.60;;;;;;4963719;23;20238;-73
2022/03/28 09:19:53;;;;;;;18.35;13.23;;;20.70;51.10;;;;;;4935765;29;20277;-70
2022/03/28 09:22:27;;;;;;;22.02;14.23;;;20.90;50.60;;;;;;4935985;29;20202;-72
2022/03/28 09:24:57;;;;;;;20.00;13.32;;;21.10;50.50;;;;;;4936328;29;20198;-72
2022/03/28 09:27:25;;;;;;;18.83;13.20;;;21.30;49.90;;;;;;4917202;29;20203;-68
2022/03/28 09:30:01;;;;;;;22.20;13.63;;;21.60;48.50;;;;;;4916094;29;20251;-67
2022/03/28 09:32:30;;;;;;;19.00;12.75;;;21.80;47.50;;;;;;4916946;29;20214;-67
2022/03/28 09:35:09;;;;;;;17.48;13.30;;;22.10;47.20;;;;;;4917134;29;20714;-68
2022/03/28 09:37:58;;;;;;;21.17;15.95;;;22.40;45.20;;;;;;4916761;29;20235;-71
2022/03/28 09:40:40;;;;;;;19.63;16.83;;;22.80;44.70;;;;;;4912245;29;20242;-70
2022/03/28 09:43:19;;;;;;;18.27;15.77;;;22.90;44.50;;;;;;4911040;29;20218;-70
2022/03/28 09:45:54;;;;;;;19.45;16.67;;;23.00;43.40;;;;;;4917026;29;20323;-70
2022/03/28 09:48:22;;;;;;;18.58;16.23;;;23.20;43.20;;;;;;4915453;29;20183;-70
2022/03/28 09:50:56;;;;;;;22.92;15.88;;;23.20;42.70;;;;;;4915558;29;20648;-71
2022/03/28 09:53:25;;;;;;;18.95;14.73;;;23.60;40.60;;;;;;4916902;29;20274;-71
2022/03/28 09:55:55;;;;;;;25.42;14.52;;;23.60;40.90;;;;;;4915627;29;20250;-70
2022/03/28 09:59:01;;;;;;;23.75;14.43;;;24.20;39.60;;;;;;4918921;29;20207;-71
2022/03/28 10:01:35;;;;;;;22.27;15.32;;;24.80;40.20;;;;;;4948794;28;20194;-70
2022/03/28 10:04:09;;;;;;;19.95;13.63;;;24.90;39.20;;;;;;4927842;29;20269;-68
2022/03/28 10:06:37;;;;;;;17.35;13.32;;;24.40;39.40;;;;;;4918339;29;20636;-68
2022/03/28 10:09:04;;;;;;;20.35;14.40;;;24.50;39.00;;;;;;4916195;29;20283;-67
2022/03/28 10:11:31;;;;;;;21.38;14.13;;;25.10;37.50;;;;;;4916470;29;20198;-67
2022/03/28 10:13:57;;;;;;;16.98;13.20;;;25.30;36.50;;;;;;4916460;29;20242;-67
2022/03/28 10:16:24;;;;;;;19.50;13.77;;;25.30;37.70;;;;;;4916245;29;20218;-67
2022/03/28 10:18:50;;;;;;;20.17;13.07;;;25.20;37.10;;;;;;4916094;29;20191;-67
2022/03/28 10:21:24;;;;;;;22.73;14.40;;;24.90;38.10;;;;;;4915735;29;20183;-67
2022/03/28 10:24:01;;;;;;;22.02;15.10;;;25.10;37.70;;;;;;4897359;29;20271;-68
2022/03/28 10:26:31;;;;;;;20.45;14.73;;;26.00;35.20;;;;;;4897217;29;20211;-67
2022/03/28 10:29:08;;;;;;;18.52;12.70;;;26.30;35.20;;;;;;4897317;29;20183;-69
2022/03/28 10:31:55;;;;;;;20.08;13.82;;;26.40;35.80;;;;;;4904041;29;20206;-69
2022/03/28 10:34:47;;;;;;;18.90;15.27;;;26.40;34.70;;;;;;4916982;29;20311;-68
2022/03/28 10:37:39;;;;;;;19.60;13.85;;;26.60;33.80;;;;;;4916515;29;20211;-70
2022/03/28 10:40:27;;;;;;;18.95;14.73;;;26.90;34.20;;;;;;4914735;29;20241;-68
2022/03/28 10:43:07;;;;;;;19.58;13.50;;;26.70;33.00;;;;;;4915829;29;20241;-67
2022/03/28 10:45:50;;;;;;;26.40;16.08;;;26.50;34.90;;;;;;4915842;29;20233;-72
2022/03/28 10:48:38;;;;;;;20.58;15.60;;;26.70;32.40;;;;;;4915358;29;20606;-69
2022/03/28 10:51:11;;;;;;;20.50;15.07;;;26.60;33.50;;;;;;4914648;29;20209;-67
2022/03/28 10:53:46;;;;;;;23.00;18.40;;;27.30;32.20;;;;;;4913118;29;20191;-68
2022/03/28 10:56:20;;;;;;;24.20;17.55;;;27.40;32.00;;;;;;4915267;29;20313;-69
2022/03/28 10:58:56;;;;;;;25.25;16.10;;;27.30;33.00;;;;;;4914435;29;20539;-68
2022/03/28 11:01:27;;;;;;;20.13;16.65;;;26.90;32.30;;;;;;4913847;29;20191;-70
2022/03/28 11:04:23;;;;;;;27.13;16.00;;;27.00;33.20;;;;;;4915050;29;20246;-70
2022/03/28 11:07:01;;;;;;;25.67;20.35;;;27.50;32.60;;;;;;4912837;29;20285;-68
2022/03/28 11:10:00;;;;;;;20.95;17.35;;;27.60;33.20;;;;;;4914980;29;20562;-69
2022/03/28 11:12:39;;;;;;;19.33;16.90;;;27.70;34.10;;;;;;4914788;29;20290;-68
2022/03/28 11:15:11;;;;;;;22.27;16.73;;;27.60;32.70;;;;;;4915081;29;20197;-70
2022/03/28 11:17:51;;;;;;;22.52;17.75;;;27.10;32.20;;;;;;4913926;29;20575;-70
2022/03/28 11:20:22;;;;;;;17.73;14.45;;;27.20;32.40;;;;;;4914767;29;20297;-70
2022/03/28 11:23:09;;;;;;;19.08;14.85;;;27.40;31.30;;;;;;4915164;29;20254;-70
2022/03/28 11:25:52;;;;;;;17.88;14.00;;;27.20;30.80;;;;;;4914628;29;20203;-70
2022/03/28 11:28:24;;;;;;;20.45;13.35;;;27.40;30.10;;;;;;4913007;29;20179;-75
2022/03/28 11:30:55;;;;;;;18.73;13.73;;;27.60;30.20;;;;;;4914936;29;20201;-70
2022/03/28 11:33:36;;;;;;;15.80;13.10;;;27.90;30.60;;;;;;4915181;29;20218;-70
2022/03/28 11:36:11;;;;;;;16.38;13.20;;;27.80;30.00;;;;;;4911407;29;20211;-68
2022/03/28 11:38:49;;;;;;;16.65;13.20;;;28.30;30.40;;;;;;4911021;29;20339;-70
2022/03/28 11:41:19;;;;;;;19.27;13.77;;;27.80;29.60;;;;;;4913373;29;20678;-70
2022/03/28 11:43:51;;;;;;;18.48;14.02;;;27.50;29.80;;;;;;4914697;29;20301;-69
2022/03/28 11:46:24;;;;;;;19.80;13.57;;;27.20;29.80;;;;;;4912753;29;20293;-69
2022/03/28 11:48:54;;;;;;;19.48;13.25;;;26.80;29.50;;;;;;4913847;29;20183;-69
2022/03/28 11:51:20;;;;;;;15.48;13.48;;;27.80;29.20;;;;;;4912958;29;20187;-69
2022/03/28 11:53:46;;;;;;;23.42;14.18;;;28.00;29.60;;;;;;4914094;29;20215;-70
2022/03/28 11:56:26;;;;;;;15.52;12.73;;;27.70;29.00;;;;;;4914252;29;20289;-69
2022/03/28 11:59:01;;;;;;;20.75;14.77;;;27.90;29.40;;;;;;4912003;29;20218;-69
2022/03/28 12:01:29;;;;;;;19.40;14.25;;;28.10;29.00;;;;;;4911561;29;20265;-69
2022/03/28 12:03:54;;;;;;;19.73;14.70;;;28.10;28.80;;;;;;4911414;29;20241;-70
2022/03/28 12:06:36;;;;;;;19.10;13.98;;;28.10;28.90;;;;;;4911351;29;20687;-69
2022/03/28 12:09:06;;;;;;;17.17;13.95;;;27.40;29.40;;;;;;4911774;29;20201;-70
2022/03/28 12:11:34;;;;;;;19.48;14.57;;;27.60;30.00;;;;;;4914468;29;20302;-70
2022/03/28 12:14:00;;;;;;;17.58;14.32;;;27.80;29.40;;;;;;4914328;29;20182;-70
2022/03/28 12:16:26;;;;;;;17.08;14.20;;;28.20;29.20;;;;;;4907324;29;20273;-70
2022/03/28 12:18:53;;;;;;;22.17;15.93;;;28.40;28.40;;;;;;4893873;29;20195;-71
2022/03/28 12:21:20;;;;;;;22.00;14.25;;;28.00;29.00;;;;;;4893808;29;20188;-69
2022/03/28 12:23:47;;;;;;;19.02;14.60;;;28.20;30.10;;;;;;4894165;29;20216;-69
2022/03/28 12:26:13;;;;;;;16.85;13.50;;;28.60;29.90;;;;;;4906079;29;20310;-70
2022/03/28 12:28:43;;;;;;;18.58;13.82;;;28.60;29.90;;;;;;4915697;29;20265;-73
2022/03/28 12:31:09;;;;;;;20.25;14.93;;;28.70;30.20;;;;;;4917060;29;20773;-69
2022/03/28 12:33:40;;;;;;;20.23;14.68;;;28.60;29.90;;;;;;4917171;29;20277;-70
2022/03/28 12:36:19;;;;;;;19.50;14.60;;;28.50;29.90;;;;;;4918617;29;20211;-68
2022/03/28 12:38:56;;;;;;;20.15;14.85;;;28.40;30.50;;;;;;4915839;29;20197;-68
2022/03/28 12:41:22;;;;;;;25.02;16.85;;;28.50;30.80;;;;;;4917743;29;20190;-69
2022/03/28 12:43:49;;;;;;;24.05;15.77;;;28.70;30.20;;;;;;4917541;29;20777;-70
2022/03/28 12:46:16;;;;;;;24.58;16.75;;;29.20;29.60;;;;;;4916167;29;20210;-70
2022/03/28 12:48:49;;;;;;;22.25;17.27;;;29.80;28.50;;;;;;4916361;29;20183;-69
2022/03/28 12:51:27;;;;;;;20.58;17.58;;;30.10;28.80;;;;;;4917494;29;20194;-69
2022/03/28 12:54:11;;;;;;;18.73;16.77;;;29.80;28.60;;;;;;4916442;29;20194;-70
2022/03/28 12:56:49;;;;;;;18.73;16.50;;;29.40;29.70;;;;;;4915387;29;20202;-69
2022/03/28 12:59:21;;;;;;;21.25;16.05;;;30.00;29.20;;;;;;4916098;29;20199;-69
2022/03/28 13:01:47;;;;;;;17.15;14.52;;;30.10;28.80;;;;;;4916418;29;20187;-69
2022/03/28 13:04:24;;;;;;;19.02;15.68;;;30.40;28.80;;;;;;4917662;29;20218;-69
2022/03/28 13:07:03;;;;;;;24.55;15.73;;;30.00;29.30;;;;;;4916257;29;20282;-70
2022/03/28 13:09:32;;;;;;;19.48;15.95;;;29.80;28.90;;;;;;4917399;29;20190;-69
2022/03/28 13:12:08;;;;;;;18.60;16.60;;;30.00;28.80;;;;;;4916988;29;20183;-68
2022/03/28 13:14:34;;;;;;;23.15;18.63;;;30.10;29.00;;;;;;4917212;29;20261;-69
2022/03/28 13:17:16;;;;;;;26.55;16.10;;;29.70;29.50;;;;;;4915374;29;20656;-70
2022/03/28 13:19:56;;;;;;;21.08;18.13;;;29.90;29.30;;;;;;4915763;29;20183;-69
2022/03/28 13:22:30;;;;;;;24.92;17.27;;;29.10;29.70;;;;;;4916827;29;20583;-69
2022/03/28 13:25:07;;;;;;;23.67;18.58;;;28.90;29.90;;;;;;4915892;29;20616;-70
2022/03/28 13:30:18;;;;;;;22.05;16.42;;;29.30;30.00;;;;;;4916977;29;20194;-69
2022/03/28 13:32:44;;;;;;;32.35;19.67;;;29.10;30.30;;;;;;4916406;29;20274;-69
2022/03/28 13:35:10;;;;;;;21.70;16.30;;;28.50;30.20;;;;;;4916483;29;20270;-69
2022/03/28 13:37:36;;;;;;;21.20;14.77;;;28.40;31.30;;;;;;4915541;29;20562;-69
2022/03/28 13:40:02;;;;;;;25.55;15.88;;;28.70;31.10;;;;;;4915095;29;20251;-72
2022/03/28 13:42:28;;;;;;;23.95;14.38;;;28.80;30.60;;;;;;4915385;29;20750;-70
2022/03/28 13:44:53;;;;;;;19.65;14.60;;;29.00;31.10;;;;;;4913254;29;20188;-71
2022/03/28 13:47:19;;;;;;;22.88;15.85;;;29.00;30.80;;;;;;4911488;29;20207;-70
2022/03/28 13:49:45;;;;;;;26.38;15.57;;;28.40;30.50;;;;;;4912248;29;20802;-70
2022/03/28 13:52:11;;;;;;;25.90;16.70;;;28.90;31.80;;;;;;4914686;29;20182;-70
2022/03/28 13:54:36;;;;;;;23.85;15.23;;;28.40;30.00;;;;;;4915459;29;20183;-71
2022/03/28 13:57:03;;;;;;;22.42;15.48;;;28.20;31.70;;;;;;4915242;29;20254;-70
2022/03/28 13:59:28;;;;;;;20.58;15.65;;;28.80;30.40;;;;;;4916183;29;20211;-70
2022/03/28 14:01:55;;;;;;;22.90;16.23;;;28.80;30.00;;;;;;4915518;29;21082;-71
2022/03/28 14:04:22;;;;;;;22.38;14.50;;;28.20;30.90;;;;;;4916144;29;20219;-70
2022/03/28 14:06:48;;;;;;;21.50;14.50;;;28.40;31.30;;;;;;4915063;29;20223;-70
2022/03/28 14:09:17;;;;;;;21.25;14.60;;;28.80;30.60;;;;;;4915980;29;20234;-70
2022/03/28 14:11:43;;;;;;;22.17;15.13;;;28.90;30.60;;;;;;4916112;29;20183;-70
2022/03/28 14:14:09;;;;;;;21.60;15.43;;;28.70;31.60;;;;;;4908046;29;20196;-70
2022/03/28 14:16:35;;;;;;;20.20;14.10;;;28.90;30.70;;;;;;4905621;29;20222;-70
2022/03/28 14:19:01;;;;;;;24.42;14.55;;;28.80;30.20;;;;;;4905434;29;20191;-68
2022/03/28 14:21:26;;;;;;;21.25;14.63;;;29.00;30.90;;;;;;4912532;29;20191;-67
2022/03/28 14:23:52;;;;;;;21.85;15.02;;;29.20;30.30;;;;;;4915493;29;20218;-68
2022/03/28 14:26:20;;;;;;;27.48;15.07;;;28.70;30.40;;;;;;4914588;29;20309;-68
2022/03/28 14:28:46;;;;;;;20.40;15.10;;;28.90;30.50;;;;;;4914739;29;20193;-70
2022/03/28 14:31:12;;;;;;;23.30;14.85;;;28.70;30.60;;;;;;4916825;29;20561;-71
2022/03/28 14:33:38;;;;;;;25.05;16.60;;;27.70;31.50;;;;;;4912487;29;20191;-68
2022/03/28 14:36:07;;;;;;;28.58;16.20;;;27.60;32.40;;;;;;4913346;29;20710;-68
2022/03/28 14:38:33;;;;;;;18.80;15.00;;;27.70;33.10;;;;;;4908196;29;20393;-70
2022/03/28 14:40:59;;;;;;;20.70;14.20;;;28.40;32.20;;;;;;4913041;29;20730;-68
2022/03/28 14:43:25;;;;;;;20.67;14.25;;;28.90;31.30;;;;;;4913289;29;20671;-70
2022/03/28 14:48:38;;;;;;;19.38;14.85;;;29.80;30.70;;;;;;4892917;29;20254;-68
2022/03/28 14:51:05;;;;;;;20.27;13.95;;;29.10;30.10;;;;;;4912233;29;20195;-69
2022/03/28 14:53:32;;;;;;;17.00;12.18;;;28.70;29.80;;;;;;4914779;29;20233;-68
2022/03/28 14:55:57;;;;;;;20.70;13.23;;;28.40;30.80;;;;;;4914917;29;20210;-68
2022/03/28 14:58:23;;;;;;;20.92;13.45;;;28.90;30.00;;;;;;4914082;29;20194;-68
2022/03/28 15:00:49;;;;;;;18.92;13.25;;;29.30;30.10;;;;;;4915437;29;20191;-68
2022/03/28 15:03:15;;;;;;;17.65;12.90;;;29.10;30.00;;;;;;4915661;29;20688;-69
2022/03/28 15:05:40;;;;;;;20.50;12.93;;;29.00;29.60;;;;;;4916669;29;20203;-68
2022/03/28 15:08:08;;;;;;;15.50;12.52;;;29.40;29.80;;;;;;4915459;29;20736;-71
2022/03/28 15:10:34;;;;;;;18.10;12.77;;;29.50;28.70;;;;;;4915574;29;20206;-68
2022/03/28 15:13:00;;;;;;;17.50;12.93;;;29.20;28.30;;;;;;4915178;29;20183;-68
2022/03/28 15:15:26;;;;;;;15.18;12.35;;;28.80;28.90;;;;;;4915180;29;20190;-68
2022/03/28 15:17:55;;;;;;;14.90;11.88;;;28.50;29.20;;;;;;4952698;23;20247;-70
2022/03/28 15:20:23;;;;;;;14.90;11.88;;;28.60;29.30;;;;;;4944589;28;20332;-70
2022/03/28 15:22:50;;;;;;;15.18;12.07;;;28.40;29.60;;;;;;4953735;28;20213;-70
2022/03/28 15:25:17;;;;;;;18.70;12.27;;;28.50;29.10;;;;;;4953539;28;20192;-69
2022/03/28 15:27:43;;;;;;;19.60;11.43;;;28.30;28.40;;;;;;4924951;28;20929;-70
2022/03/28 15:30:09;;;;;;;14.68;10.52;;;27.80;29.30;;;;;;4915439;29;20264;-70
2022/03/28 15:32:35;;;;;;;17.50;10.48;;;27.40;30.00;;;;;;4914881;29;20270;-70
2022/03/28 15:35:00;;;;;;;16.70;11.65;;;27.20;30.10;;;;;;4915384;29;20266;-70
2022/03/28 15:37:26;;;;;;;15.80;11.85;;;27.30;29.60;;;;;;4925227;29;20203;-69
2022/03/28 15:39:52;;;;;;;13.77;11.25;;;26.70;28.90;;;;;;4934211;29;20531;-70
2022/03/28 15:42:18;;;;;;;13.48;11.52;;;25.80;29.20;;;;;;4934009;29;20214;-69
2022/03/28 15:44:44;;;;;;;20.27;12.25;;;24.90;30.90;;;;;;4951227;29;20199;-69
2022/03/28 15:47:10;;;;;;;13.70;12.40;;;23.90;32.10;;;;;;4923812;29;20258;-69